createdAt,value
2022-10-17T00:00:04.263Z,14.81
2022-10-17T00:01:04.317Z,14.75
2022-10-17T00:02:04.260Z,14.81
2022-10-17T00:03:04.288Z,14.75
2022-10-17T00:04:04.230Z,14.75
2022-10-17T00:05:04.248Z,14.75
2022-10-17T00:06:04.390Z,14.75
2022-10-17T00:07:04.282Z,14.75
2022-10-17T00:08:04.278Z,14.75
2022-10-17T00:09:04.250Z,14.75
2022-10-17T00:10:04.270Z,14.69
2022-10-17T00:11:04.271Z,14.69
2022-10-17T00:12:04.271Z,14.69
2022-10-17T00:13:04.303Z,14.69
2022-10-17T00:14:04.257Z,14.62
2022-10-17T00:15:04.280Z,14.62
2022-10-17T00:16:04.273Z,14.62
2022-10-17T00:17:04.318Z,14.62
2022-10-17T00:18:04.317Z,14.62
2022-10-17T00:19:05.113Z,14.62
2022-10-17T00:20:04.387Z,14.62
2022-10-17T00:21:04.318Z,14.62
2022-10-17T00:22:04.314Z,14.56
2022-10-17T00:23:04.269Z,14.56
2022-10-17T00:24:04.272Z,14.56
2022-10-17T00:25:04.274Z,14.56
2022-10-17T00:26:04.288Z,14.56
2022-10-17T00:27:04.288Z,14.56
2022-10-17T00:28:04.286Z,14.56
2022-10-17T00:29:04.359Z,14.50
2022-10-17T00:30:04.304Z,14.50
2022-10-17T00:31:04.300Z,14.50
2022-10-17T00:32:04.341Z,14.50
2022-10-17T00:33:04.286Z,14.50
2022-10-17T00:34:04.306Z,14.50
2022-10-17T00:35:04.316Z,14.50
2022-10-17T00:36:04.318Z,14.44
2022-10-17T00:37:04.352Z,14.44
2022-10-17T00:38:04.308Z,14.44
2022-10-17T00:39:04.299Z,14.44
2022-10-17T00:40:04.292Z,14.38
2022-10-17T00:41:04.296Z,14.38
2022-10-17T00:42:04.326Z,14.38
2022-10-17T00:43:04.306Z,14.38
2022-10-17T00:44:04.306Z,14.38
2022-10-17T00:45:04.289Z,14.38
2022-10-17T00:46:04.318Z,14.38
2022-10-17T00:47:04.360Z,14.38
2022-10-17T00:48:04.287Z,14.38
2022-10-17T00:49:04.303Z,14.38
2022-10-17T00:50:04.309Z,14.31
2022-10-17T00:51:04.329Z,14.31
2022-10-17T00:52:04.322Z,14.31
2022-10-17T00:53:04.389Z,14.31
2022-10-17T00:54:04.406Z,14.31
2022-10-17T00:55:04.479Z,14.31
2022-10-17T00:56:04.555Z,14.31
2022-10-17T00:57:04.647Z,14.31
2022-10-17T00:58:04.323Z,14.25
2022-10-17T01:00:04.307Z,14.25
2022-10-17T01:01:04.349Z,14.25
2022-10-17T01:02:04.336Z,14.19
2022-10-17T01:03:04.299Z,14.19
2022-10-17T01:04:04.326Z,14.19
2022-10-17T01:05:04.305Z,14.19
2022-10-17T01:06:04.314Z,14.12
2022-10-17T01:07:04.333Z,14.12
2022-10-17T01:08:04.334Z,14.12
2022-10-17T01:09:04.334Z,14.12
2022-10-17T01:10:04.365Z,14.12
2022-10-17T01:11:04.307Z,14.19
2022-10-17T01:12:04.333Z,14.12
2022-10-17T01:13:04.325Z,14.19
2022-10-17T01:14:04.314Z,14.19
2022-10-17T01:15:04.317Z,14.19
2022-10-17T01:16:04.338Z,14.19
2022-10-17T01:17:04.355Z,14.19
2022-10-17T01:18:04.312Z,14.19
2022-10-17T01:19:04.399Z,14.19
2022-10-17T01:20:04.468Z,14.31
2022-10-17T01:21:04.480Z,14.38
2022-10-17T01:22:04.490Z,14.38
2022-10-17T01:23:04.414Z,14.44
2022-10-17T01:24:04.583Z,14.44
2022-10-17T01:25:04.335Z,14.56
2022-10-17T01:26:04.357Z,14.62
2022-10-17T01:27:04.499Z,14.69
2022-10-17T01:28:04.422Z,14.88
2022-10-17T01:29:04.479Z,14.94
2022-10-17T01:30:04.327Z,15.06
2022-10-17T01:31:04.348Z,15.12
2022-10-17T01:32:04.363Z,15.19
2022-10-17T01:33:04.369Z,15.31
2022-10-17T01:34:04.346Z,15.44
2022-10-17T01:35:04.344Z,15.50
2022-10-17T01:36:04.959Z,15.56
2022-10-17T01:37:04.360Z,15.62
2022-10-17T01:38:04.353Z,15.69
2022-10-17T01:39:04.359Z,15.69
2022-10-17T01:40:04.380Z,15.75
2022-10-17T01:41:04.337Z,15.81
2022-10-17T01:42:04.367Z,15.88
2022-10-17T01:43:04.383Z,15.94
2022-10-17T01:44:04.402Z,16.00
2022-10-17T01:45:04.343Z,16.00
2022-10-17T01:46:04.378Z,16.06
2022-10-17T01:47:04.381Z,16.12
2022-10-17T01:48:04.354Z,16.12
2022-10-17T01:49:04.380Z,16.12
2022-10-17T01:50:04.424Z,16.19
2022-10-17T01:51:04.373Z,16.25
2022-10-17T01:52:04.390Z,16.25
2022-10-17T01:53:04.393Z,16.31
2022-10-17T01:54:04.409Z,16.31
2022-10-17T01:55:04.486Z,16.38
2022-10-17T01:56:04.373Z,16.44
2022-10-17T01:57:04.410Z,16.44
2022-10-17T01:58:04.403Z,16.50
2022-10-17T01:59:04.398Z,16.50
2022-10-17T02:00:04.424Z,16.56
2022-10-17T02:01:04.441Z,16.56
2022-10-17T02:02:04.420Z,16.62
2022-10-17T02:03:04.376Z,16.62
2022-10-17T02:04:04.396Z,16.62
2022-10-17T02:05:04.441Z,16.69
2022-10-17T02:06:04.467Z,16.69
2022-10-17T02:07:04.494Z,16.69
2022-10-17T02:08:04.395Z,16.75
2022-10-17T02:09:04.414Z,16.75
2022-10-17T02:10:04.379Z,16.75
2022-10-17T02:11:04.391Z,16.81
2022-10-17T02:12:04.392Z,16.81
2022-10-17T02:13:04.374Z,16.81
2022-10-17T02:14:04.451Z,16.81
2022-10-17T02:15:04.452Z,16.81
2022-10-17T02:16:04.392Z,16.81
2022-10-17T02:17:05.035Z,16.81
2022-10-17T02:18:04.407Z,16.88
2022-10-17T02:19:04.404Z,16.81
2022-10-17T02:20:04.406Z,16.88
2022-10-17T02:21:04.405Z,16.88
2022-10-17T02:22:04.403Z,16.88
2022-10-17T02:23:04.390Z,16.88
2022-10-17T02:24:04.396Z,16.88
2022-10-17T02:25:04.410Z,16.88
2022-10-17T02:26:04.410Z,16.88
2022-10-17T02:27:04.401Z,16.88
2022-10-17T02:28:04.379Z,16.88
2022-10-17T02:29:04.444Z,16.88
2022-10-17T02:30:04.397Z,16.88
2022-10-17T02:31:04.410Z,16.88
2022-10-17T02:32:04.420Z,16.88
2022-10-17T02:33:04.404Z,16.88
2022-10-17T02:34:04.422Z,16.88
2022-10-17T02:35:04.419Z,16.88
2022-10-17T02:36:04.410Z,16.81
2022-10-17T02:37:04.404Z,16.81
2022-10-17T02:38:04.396Z,16.81
2022-10-17T02:39:04.392Z,16.81
2022-10-17T02:40:04.407Z,16.81
2022-10-17T02:41:04.391Z,16.75
2022-10-17T02:42:04.442Z,16.75
2022-10-17T02:43:04.429Z,16.75
2022-10-17T02:44:04.407Z,16.75
2022-10-17T02:45:04.398Z,16.75
2022-10-17T02:46:04.414Z,16.69
2022-10-17T02:47:04.429Z,16.69
2022-10-17T02:48:04.398Z,16.62
2022-10-17T02:49:04.420Z,16.62
2022-10-17T02:50:04.424Z,16.62
2022-10-17T02:51:04.420Z,16.62
2022-10-17T02:52:04.437Z,16.56
2022-10-17T02:53:04.426Z,16.56
2022-10-17T02:54:04.425Z,16.50
2022-10-17T02:55:04.416Z,16.50
2022-10-17T02:56:04.558Z,16.50
2022-10-17T02:57:04.535Z,16.44
2022-10-17T02:58:04.575Z,16.44
2022-10-17T02:59:04.419Z,16.44
2022-10-17T03:00:04.441Z,16.38
2022-10-17T03:01:04.462Z,16.38
2022-10-17T03:02:04.457Z,16.38
2022-10-17T03:03:04.419Z,16.38
2022-10-17T03:04:04.447Z,16.31
2022-10-17T03:05:04.423Z,16.31
2022-10-17T03:06:04.410Z,16.31
2022-10-17T03:07:04.450Z,16.25
2022-10-17T03:08:04.405Z,16.25
2022-10-17T03:09:04.412Z,16.25
2022-10-17T03:10:04.446Z,16.25
2022-10-17T03:11:04.413Z,16.19
2022-10-17T03:12:04.479Z,16.19
2022-10-17T03:13:04.434Z,16.19
2022-10-17T03:14:04.449Z,16.19
2022-10-17T03:15:04.453Z,16.12
2022-10-17T03:16:04.437Z,16.12
2022-10-17T03:17:04.452Z,16.12
2022-10-17T03:18:04.456Z,16.12
2022-10-17T03:19:04.442Z,16.12
2022-10-17T03:20:04.446Z,16.06
2022-10-17T03:21:04.457Z,16.06
2022-10-17T03:22:04.475Z,16.06
2022-10-17T03:23:04.471Z,16.06
2022-10-17T03:24:04.458Z,16.00
2022-10-17T03:25:04.479Z,16.00
2022-10-17T03:26:04.472Z,16.00
2022-10-17T03:27:04.469Z,16.00
2022-10-17T03:28:04.454Z,15.94
2022-10-17T03:29:04.516Z,15.94
2022-10-17T03:30:04.558Z,15.94
2022-10-17T03:31:04.481Z,15.94
2022-10-17T03:32:04.469Z,15.94
2022-10-17T03:33:04.488Z,15.88
2022-10-17T03:34:04.471Z,15.88
2022-10-17T03:35:04.681Z,15.88
2022-10-17T03:36:04.469Z,15.88
2022-10-17T03:37:04.491Z,15.88
2022-10-17T03:38:04.477Z,15.88
2022-10-17T03:39:04.456Z,15.81
2022-10-17T03:40:04.451Z,15.81
2022-10-17T03:41:04.456Z,15.81
2022-10-17T03:42:04.538Z,15.81
2022-10-17T03:43:04.472Z,15.81
2022-10-17T03:44:04.473Z,15.81
2022-10-17T03:45:04.469Z,15.81
2022-10-17T03:46:04.534Z,15.81
2022-10-17T03:47:04.502Z,15.81
2022-10-17T03:48:04.466Z,15.81
2022-10-17T03:49:04.472Z,15.81
2022-10-17T03:50:04.478Z,15.81
2022-10-17T03:51:04.474Z,15.75
2022-10-17T03:52:04.485Z,15.75
2022-10-17T03:53:04.487Z,15.75
2022-10-17T03:54:04.485Z,15.75
2022-10-17T03:55:04.489Z,15.75
2022-10-17T03:56:04.498Z,15.69
2022-10-17T03:57:04.504Z,15.69
2022-10-17T03:58:04.488Z,15.69
2022-10-17T03:59:04.518Z,15.69
2022-10-17T04:00:04.497Z,15.69
2022-10-17T04:01:04.494Z,15.62
2022-10-17T04:02:04.514Z,15.62
2022-10-17T04:03:04.496Z,15.62
2022-10-17T04:04:04.479Z,15.62
2022-10-17T04:05:04.487Z,15.62
2022-10-17T04:06:04.472Z,15.56
2022-10-17T04:07:04.480Z,15.56
2022-10-17T04:08:04.802Z,15.56
2022-10-17T04:09:04.488Z,15.56
2022-10-17T04:10:04.484Z,15.56
2022-10-17T04:11:04.504Z,15.56
2022-10-17T04:12:04.507Z,15.56
2022-10-17T04:13:04.492Z,15.62
2022-10-17T04:14:04.500Z,15.62
2022-10-17T04:15:04.557Z,15.62
2022-10-17T04:16:04.525Z,15.69
2022-10-17T04:17:04.494Z,15.69
2022-10-17T04:19:04.499Z,15.75
2022-10-17T04:20:04.529Z,15.75
2022-10-17T04:21:04.514Z,15.75
2022-10-17T04:22:04.526Z,15.75
2022-10-17T04:23:04.491Z,15.75
2022-10-17T04:24:04.509Z,15.75
2022-10-17T04:25:04.519Z,15.75
2022-10-17T04:26:04.479Z,15.75
2022-10-17T04:27:04.534Z,15.75
2022-10-17T04:28:04.536Z,15.75
2022-10-17T04:29:04.517Z,15.75
2022-10-17T04:30:04.508Z,15.75
2022-10-17T04:31:04.499Z,15.75
2022-10-17T04:32:04.532Z,15.75
2022-10-17T04:33:04.514Z,15.75
2022-10-17T04:34:04.530Z,15.75
2022-10-17T04:35:04.525Z,15.75
2022-10-17T04:36:04.580Z,15.75
2022-10-17T04:37:04.521Z,15.75
2022-10-17T04:38:04.537Z,15.75
2022-10-17T04:39:04.521Z,15.75
2022-10-17T04:40:04.599Z,15.69
2022-10-17T04:41:04.539Z,15.69
2022-10-17T04:42:04.547Z,15.69
2022-10-17T04:43:04.528Z,15.69
2022-10-17T04:44:04.538Z,15.69
2022-10-17T04:45:04.543Z,15.62
2022-10-17T04:46:04.521Z,15.62
2022-10-17T04:47:04.522Z,15.62
2022-10-17T04:48:04.536Z,15.62
2022-10-17T04:49:04.505Z,15.56
2022-10-17T04:50:04.511Z,15.56
2022-10-17T04:51:04.551Z,15.56
2022-10-17T04:52:04.532Z,15.56
2022-10-17T04:53:04.529Z,15.50
2022-10-17T04:54:04.540Z,15.50
2022-10-17T04:55:04.546Z,15.50
2022-10-17T04:56:04.511Z,15.50
2022-10-17T04:57:04.531Z,15.44
2022-10-17T04:58:04.520Z,15.44
2022-10-17T04:59:04.560Z,15.44
2022-10-17T05:00:04.634Z,15.44
2022-10-17T05:01:04.641Z,15.38
2022-10-17T05:02:04.544Z,15.38
2022-10-17T05:03:04.550Z,15.38
2022-10-17T05:04:04.554Z,15.38
2022-10-17T05:05:04.551Z,15.38
2022-10-17T05:06:04.556Z,15.31
2022-10-17T05:07:04.536Z,15.31
2022-10-17T05:08:04.536Z,15.31
2022-10-17T05:09:04.557Z,15.31
2022-10-17T05:10:04.564Z,15.31
2022-10-17T05:11:04.555Z,15.31
2022-10-17T05:12:05.498Z,15.31
2022-10-17T05:13:04.566Z,15.31
2022-10-17T05:14:04.549Z,15.31
2022-10-17T05:15:04.554Z,15.31
2022-10-17T05:16:05.032Z,15.31
2022-10-17T05:17:04.567Z,15.31
2022-10-17T05:18:04.563Z,15.31
2022-10-17T05:19:04.562Z,15.31
2022-10-17T05:20:04.569Z,15.25
2022-10-17T05:21:04.565Z,15.25
2022-10-17T05:22:04.559Z,15.25
2022-10-17T05:23:04.566Z,15.25
2022-10-17T05:24:04.549Z,15.31
2022-10-17T05:25:04.592Z,15.31
2022-10-17T05:26:04.569Z,15.31
2022-10-17T05:27:04.579Z,15.31
2022-10-17T05:28:04.560Z,15.31
2022-10-17T05:29:04.604Z,15.25
2022-10-17T05:30:04.582Z,15.25
2022-10-17T05:31:04.588Z,15.25
2022-10-17T05:32:04.584Z,15.25
2022-10-17T05:33:04.586Z,15.25
2022-10-17T05:34:04.606Z,15.25
2022-10-17T05:35:04.563Z,15.25
2022-10-17T05:36:04.533Z,15.25
2022-10-17T05:37:04.565Z,15.25
2022-10-17T05:38:04.557Z,15.25
2022-10-17T05:39:04.555Z,15.25
2022-10-17T05:40:04.538Z,15.25
2022-10-17T05:41:04.565Z,15.25
2022-10-17T05:42:04.591Z,15.25
2022-10-17T05:43:04.585Z,15.25
2022-10-17T05:44:05.434Z,15.25
2022-10-17T05:45:04.543Z,15.25
2022-10-17T05:46:04.541Z,15.25
2022-10-17T05:47:04.561Z,15.19
2022-10-17T05:48:04.550Z,15.19
2022-10-17T05:49:10.615Z,15.19
2022-10-17T05:50:04.566Z,15.25
2022-10-17T05:51:04.583Z,15.19
2022-10-17T05:52:04.621Z,15.19
2022-10-17T05:53:04.574Z,15.19
2022-10-17T05:54:04.585Z,15.19
2022-10-17T05:55:04.583Z,15.19
2022-10-17T05:56:04.573Z,15.25
2022-10-17T05:57:04.570Z,15.25
2022-10-17T05:58:04.570Z,15.25
2022-10-17T05:59:04.556Z,15.25
2022-10-17T06:00:04.609Z,15.25
2022-10-17T06:01:04.909Z,15.25
2022-10-17T06:02:04.717Z,15.25
2022-10-17T06:03:04.567Z,15.25
2022-10-17T06:04:04.593Z,15.31
2022-10-17T06:05:04.637Z,15.25
2022-10-17T06:06:04.571Z,15.31
2022-10-17T06:07:04.614Z,15.31
2022-10-17T06:08:04.569Z,15.31
2022-10-17T06:09:04.591Z,15.31
2022-10-17T06:10:04.602Z,15.31
2022-10-17T06:11:05.985Z,15.38
2022-10-17T06:12:04.604Z,15.38
2022-10-17T06:13:04.601Z,15.38
2022-10-17T06:14:04.612Z,15.44
2022-10-17T06:15:04.589Z,15.44
2022-10-17T06:16:04.598Z,15.44
2022-10-17T06:17:04.629Z,15.50
2022-10-17T06:18:04.618Z,15.50
2022-10-17T06:19:04.622Z,15.56
2022-10-17T06:20:04.610Z,15.56
2022-10-17T06:21:04.606Z,15.69
2022-10-17T06:22:04.610Z,15.75
2022-10-17T06:23:04.605Z,15.81
2022-10-17T06:24:04.622Z,15.94
2022-10-17T06:25:04.633Z,16.00
2022-10-17T06:26:04.628Z,16.12
2022-10-17T06:27:07.888Z,16.25
2022-10-17T06:28:04.631Z,16.38
2022-10-17T06:29:04.706Z,16.56
2022-10-17T06:30:04.648Z,16.69
2022-10-17T06:31:04.658Z,16.88
2022-10-17T06:32:04.637Z,17.00
2022-10-17T06:33:04.633Z,17.12
2022-10-17T06:34:04.645Z,17.31
2022-10-17T06:35:04.605Z,17.44
2022-10-17T06:36:04.619Z,17.62
2022-10-17T06:37:04.627Z,17.75
2022-10-17T06:38:04.595Z,17.94
2022-10-17T06:39:04.607Z,18.06
2022-10-17T06:40:04.594Z,18.25
2022-10-17T06:41:04.649Z,18.38
2022-10-17T06:42:04.644Z,18.50
2022-10-17T06:43:04.609Z,18.62
2022-10-17T06:44:04.639Z,18.75
2022-10-17T06:45:04.665Z,18.88
2022-10-17T06:46:04.635Z,19.00
2022-10-17T06:47:04.649Z,19.06
2022-10-17T06:48:04.648Z,19.19
2022-10-17T06:49:04.623Z,19.25
2022-10-17T06:50:04.622Z,19.38
2022-10-17T06:51:04.646Z,19.44
2022-10-17T06:52:04.659Z,19.50
2022-10-17T06:53:04.614Z,19.56
2022-10-17T06:54:04.643Z,19.62
2022-10-17T06:55:04.604Z,19.75
2022-10-17T06:56:04.613Z,19.81
2022-10-17T06:57:04.643Z,19.88
2022-10-17T06:58:04.607Z,19.94
2022-10-17T06:59:04.605Z,20.00
2022-10-17T07:00:04.605Z,20.00
2022-10-17T07:01:04.648Z,20.06
2022-10-17T07:02:04.644Z,20.06
2022-10-17T07:03:04.643Z,20.12
2022-10-17T07:04:04.641Z,20.12
2022-10-17T07:05:04.658Z,20.19
2022-10-17T07:06:04.622Z,20.19
2022-10-17T07:07:04.640Z,20.19
2022-10-17T07:08:04.623Z,20.19
2022-10-17T07:09:04.867Z,20.25
2022-10-17T07:10:04.617Z,20.25
2022-10-17T07:11:04.640Z,20.25
2022-10-17T07:12:04.697Z,20.25
2022-10-17T07:13:04.643Z,20.25
2022-10-17T07:14:04.696Z,20.25
2022-10-17T07:15:04.652Z,20.25
2022-10-17T07:16:04.652Z,20.25
2022-10-17T07:17:04.662Z,20.25
2022-10-17T07:18:04.643Z,20.25
2022-10-17T07:19:04.653Z,20.25
2022-10-17T07:20:04.631Z,20.31
2022-10-17T07:21:04.630Z,20.31
2022-10-17T07:22:04.671Z,20.31
2022-10-17T07:23:04.674Z,20.31
2022-10-17T07:24:04.641Z,20.31
2022-10-17T07:25:04.636Z,20.31
2022-10-17T07:26:04.690Z,20.38
2022-10-17T07:27:04.678Z,20.38
2022-10-17T07:28:04.649Z,20.44
2022-10-17T07:29:04.693Z,20.50
2022-10-17T07:30:04.652Z,20.50
2022-10-17T07:31:04.657Z,20.56
2022-10-17T07:32:04.679Z,20.62
2022-10-17T07:33:04.656Z,20.69
2022-10-17T07:34:04.671Z,20.75
2022-10-17T07:35:04.649Z,20.75
2022-10-17T07:36:04.693Z,20.81
2022-10-17T07:37:04.694Z,20.88
2022-10-17T07:38:04.685Z,20.94
2022-10-17T07:39:04.830Z,21.00
2022-10-17T07:40:04.674Z,21.06
2022-10-17T07:41:04.679Z,21.12
2022-10-17T07:42:04.684Z,21.19
2022-10-17T07:43:04.672Z,21.25
2022-10-17T07:44:04.683Z,21.31
2022-10-17T07:45:04.675Z,21.38
2022-10-17T07:46:04.686Z,21.38
2022-10-17T07:47:04.673Z,21.50
2022-10-17T07:48:04.680Z,21.56
2022-10-17T07:49:04.697Z,21.62
2022-10-17T07:50:04.690Z,21.69
2022-10-17T07:51:04.722Z,21.81
2022-10-17T07:52:04.667Z,21.94
2022-10-17T07:53:04.698Z,22.00
2022-10-17T07:54:04.713Z,22.06
2022-10-17T07:55:04.689Z,22.19
2022-10-17T07:56:04.703Z,22.25
2022-10-17T07:57:04.693Z,22.25
2022-10-17T07:58:04.705Z,22.31
2022-10-17T07:59:06.681Z,22.31
2022-10-17T08:00:04.705Z,22.38
2022-10-17T08:01:05.277Z,22.38
2022-10-17T08:02:04.710Z,22.38
2022-10-17T08:03:04.713Z,22.38
2022-10-17T08:04:04.706Z,22.44
2022-10-17T08:05:04.709Z,22.44
2022-10-17T08:06:04.688Z,22.50
2022-10-17T08:07:18.508Z,22.56
2022-10-17T08:08:04.721Z,22.56
2022-10-17T08:09:04.691Z,22.62
2022-10-17T08:10:04.750Z,22.62
2022-10-17T08:11:04.679Z,22.69
2022-10-17T08:12:04.709Z,22.69
2022-10-17T08:13:04.693Z,22.75
2022-10-17T08:14:04.728Z,22.81
2022-10-17T08:15:04.686Z,22.81
2022-10-17T08:16:04.708Z,22.81
2022-10-17T08:17:04.720Z,22.88
2022-10-17T08:18:04.702Z,22.88
2022-10-17T08:19:04.787Z,22.88
2022-10-17T08:20:04.716Z,22.88
2022-10-17T08:21:04.689Z,22.88
2022-10-17T08:22:04.707Z,22.88
2022-10-17T08:23:04.723Z,22.88
2022-10-17T08:24:04.692Z,22.88
2022-10-17T08:25:04.716Z,22.88
2022-10-17T08:26:04.723Z,22.88
2022-10-17T08:27:04.734Z,22.88
2022-10-17T08:28:04.797Z,22.94
2022-10-17T08:29:04.791Z,22.94
2022-10-17T08:30:04.707Z,22.94
2022-10-17T08:31:04.737Z,22.94
2022-10-17T08:32:06.522Z,22.88
2022-10-17T08:33:04.702Z,22.88
2022-10-17T08:34:04.701Z,22.81
2022-10-17T08:35:04.708Z,22.81
2022-10-17T08:36:04.711Z,22.75
2022-10-17T08:37:04.766Z,22.75
2022-10-17T08:38:04.731Z,22.69
2022-10-17T08:39:04.745Z,22.69
2022-10-17T08:40:04.757Z,22.69
2022-10-17T08:41:04.713Z,22.69
2022-10-17T08:42:04.718Z,22.69
2022-10-17T08:43:04.771Z,22.69
2022-10-17T08:44:04.723Z,22.69
2022-10-17T08:45:04.731Z,22.69
2022-10-17T08:46:04.773Z,22.69
2022-10-17T08:47:04.774Z,22.69
2022-10-17T08:48:04.716Z,22.69
2022-10-17T08:49:06.593Z,22.69
2022-10-17T08:50:04.744Z,22.69
2022-10-17T08:51:04.745Z,22.69
2022-10-17T08:52:04.762Z,22.69
2022-10-17T08:53:04.729Z,22.62
2022-10-17T08:54:04.750Z,22.62
2022-10-17T08:55:04.719Z,22.62
2022-10-17T08:56:04.736Z,22.69
2022-10-17T08:57:04.768Z,22.69
2022-10-17T08:58:04.791Z,22.69
2022-10-17T08:59:04.725Z,22.69
2022-10-17T09:00:04.732Z,22.62
2022-10-17T09:01:06.963Z,22.69
2022-10-17T09:02:04.774Z,22.62
2022-10-17T09:03:04.782Z,22.69
2022-10-17T09:04:04.728Z,22.69
2022-10-17T09:05:04.738Z,22.62
2022-10-17T09:06:04.774Z,22.62
2022-10-17T09:07:04.770Z,22.69
2022-10-17T09:08:04.753Z,22.62
2022-10-17T09:09:04.774Z,22.62
2022-10-17T09:10:04.730Z,22.62
2022-10-17T09:11:04.731Z,22.62
2022-10-17T09:12:04.779Z,22.62
2022-10-17T09:13:06.803Z,22.62
2022-10-17T09:14:04.733Z,22.69
2022-10-17T09:15:04.780Z,22.69
2022-10-17T09:16:04.722Z,22.69
2022-10-17T09:17:04.742Z,22.69
2022-10-17T09:18:04.759Z,22.69
2022-10-17T09:19:04.756Z,22.69
2022-10-17T09:20:04.775Z,22.75
2022-10-17T09:21:04.770Z,22.75
2022-10-17T09:22:04.910Z,22.75
2022-10-17T09:23:04.769Z,22.75
2022-10-17T09:24:09.245Z,22.75
2022-10-17T09:25:04.739Z,22.75
2022-10-17T09:26:04.769Z,22.81
2022-10-17T09:27:04.792Z,22.81
2022-10-17T09:28:04.732Z,22.81
2022-10-17T09:29:04.785Z,22.81
2022-10-17T09:30:07.130Z,22.81
2022-10-17T09:31:04.744Z,22.81
2022-10-17T09:32:04.767Z,22.88
2022-10-17T09:33:04.747Z,22.88
2022-10-17T09:34:04.739Z,22.88
2022-10-17T09:35:04.749Z,22.88
2022-10-17T09:36:04.784Z,22.94
2022-10-17T09:37:04.787Z,22.94
2022-10-17T09:38:04.772Z,22.94
2022-10-17T09:39:04.777Z,23.00
2022-10-17T09:40:04.794Z,23.00
2022-10-17T09:41:15.920Z,23.00
2022-10-17T09:42:04.779Z,23.06
2022-10-17T09:43:04.776Z,23.06
2022-10-17T09:44:04.747Z,23.06
2022-10-17T09:45:04.748Z,23.12
2022-10-17T09:46:04.756Z,23.12
2022-10-17T09:47:04.800Z,23.12
2022-10-17T09:48:04.788Z,23.12
2022-10-17T09:49:04.774Z,23.19
2022-10-17T09:50:04.771Z,23.19
2022-10-17T09:51:15.031Z,23.19
2022-10-17T09:52:04.795Z,23.19
2022-10-17T09:53:04.777Z,23.25
2022-10-17T09:54:04.772Z,23.25
2022-10-17T09:55:04.757Z,23.25
2022-10-17T09:56:04.768Z,23.31
2022-10-17T09:57:04.791Z,23.31
2022-10-17T09:58:04.778Z,23.31
2022-10-17T09:59:04.784Z,23.31
2022-10-17T10:00:04.844Z,23.31
2022-10-17T10:01:04.810Z,23.38
2022-10-17T10:02:04.793Z,23.38
2022-10-17T10:03:04.782Z,23.38
2022-10-17T10:04:04.784Z,23.44
2022-10-17T10:05:06.236Z,23.44
2022-10-17T10:06:04.823Z,23.44
2022-10-17T10:07:04.800Z,23.50
2022-10-17T10:08:04.795Z,23.50
2022-10-17T10:09:04.818Z,23.50
2022-10-17T10:10:04.840Z,23.56
2022-10-17T10:11:04.804Z,23.56
2022-10-17T10:12:04.848Z,23.56
2022-10-17T10:13:04.808Z,23.62
2022-10-17T10:14:04.808Z,23.62
2022-10-17T10:15:04.801Z,23.62
2022-10-17T10:16:04.810Z,23.62
2022-10-17T10:17:04.846Z,23.69
2022-10-17T10:18:04.815Z,23.69
2022-10-17T10:19:05.886Z,23.69
2022-10-17T10:20:04.847Z,23.69
2022-10-17T10:21:04.850Z,23.75
2022-10-17T10:22:04.844Z,23.75
2022-10-17T10:23:04.823Z,23.81
2022-10-17T10:24:04.880Z,23.81
2022-10-17T10:25:04.866Z,23.81
2022-10-17T10:26:04.874Z,23.88
2022-10-17T10:27:04.852Z,23.88
2022-10-17T10:28:04.831Z,23.88
2022-10-17T10:29:04.938Z,23.94
2022-10-17T10:30:04.825Z,23.94
2022-10-17T10:31:04.856Z,23.94
2022-10-17T10:32:04.835Z,24.00
2022-10-17T10:33:04.822Z,24.00
2022-10-17T10:34:04.865Z,24.06
2022-10-17T10:35:04.855Z,24.06
2022-10-17T10:36:04.825Z,24.06
2022-10-17T10:37:04.868Z,24.12
2022-10-17T10:38:04.823Z,24.12
2022-10-17T10:39:04.843Z,24.12
2022-10-17T10:40:04.835Z,24.19
2022-10-17T10:41:04.821Z,24.19
2022-10-17T10:42:04.848Z,24.19
2022-10-17T10:43:05.537Z,24.19
2022-10-17T10:44:04.849Z,24.19
2022-10-17T10:45:04.855Z,24.19
2022-10-17T10:46:04.834Z,24.25
2022-10-17T10:47:04.841Z,24.25
2022-10-17T10:48:04.862Z,24.25
2022-10-17T10:49:04.848Z,24.25
2022-10-17T10:50:04.829Z,24.31
2022-10-17T10:51:04.836Z,24.25
2022-10-17T10:52:04.849Z,24.31
2022-10-17T10:53:04.840Z,24.25
2022-10-17T10:54:04.892Z,24.31
2022-10-17T10:55:04.871Z,24.31
2022-10-17T10:56:04.849Z,24.31
2022-10-17T10:57:04.875Z,24.38
2022-10-17T10:58:04.878Z,24.38
2022-10-17T10:59:04.913Z,24.38
2022-10-17T11:00:04.874Z,24.38
2022-10-17T11:01:04.967Z,24.44
2022-10-17T11:02:04.907Z,24.44
2022-10-17T11:03:04.853Z,24.44
2022-10-17T11:04:04.846Z,24.44
2022-10-17T11:05:04.861Z,24.44
2022-10-17T11:06:04.851Z,24.44
2022-10-17T11:07:04.880Z,24.50
2022-10-17T11:08:04.839Z,24.50
2022-10-17T11:09:04.879Z,24.50
2022-10-17T11:10:04.901Z,24.50
2022-10-17T11:11:04.872Z,24.50
2022-10-17T11:12:04.861Z,24.50
2022-10-17T11:13:04.902Z,24.50
2022-10-17T11:14:04.889Z,24.50
2022-10-17T11:15:04.966Z,24.50
2022-10-17T11:16:04.885Z,24.50
2022-10-17T11:17:04.890Z,24.50
2022-10-17T11:18:04.870Z,24.56
2022-10-17T11:19:04.876Z,24.56
2022-10-17T11:20:04.870Z,24.56
2022-10-17T11:21:04.872Z,24.56
2022-10-17T11:22:04.873Z,24.62
2022-10-17T11:23:04.867Z,24.62
2022-10-17T11:24:06.780Z,24.62
2022-10-17T11:25:04.950Z,24.69
2022-10-17T11:26:04.863Z,24.69
2022-10-17T11:27:04.910Z,24.69
2022-10-17T11:28:05.379Z,24.69
2022-10-17T11:29:04.938Z,24.69
2022-10-17T11:30:04.888Z,24.69
2022-10-17T11:31:06.968Z,24.69
2022-10-17T11:32:04.887Z,24.69
2022-10-17T11:33:04.875Z,24.69
2022-10-17T11:34:04.879Z,24.69
2022-10-17T11:35:04.874Z,24.75
2022-10-17T11:36:04.893Z,24.75
2022-10-17T11:37:04.887Z,24.75
2022-10-17T11:38:04.908Z,24.75
2022-10-17T11:39:04.911Z,24.75
2022-10-17T11:40:04.875Z,24.75
2022-10-17T11:41:04.913Z,24.75
2022-10-17T11:42:04.924Z,24.75
2022-10-17T11:43:04.891Z,24.75
2022-10-17T11:44:04.890Z,24.75
2022-10-17T11:45:04.879Z,24.75
2022-10-17T11:46:04.882Z,24.81
2022-10-17T11:47:04.937Z,24.81
2022-10-17T11:48:04.930Z,24.81
2022-10-17T11:49:04.938Z,24.81
2022-10-17T11:52:04.905Z,24.75
2022-10-17T11:53:05.068Z,24.75
2022-10-17T11:54:04.919Z,24.75
2022-10-17T11:55:04.892Z,24.81
2022-10-17T11:56:04.887Z,24.81
2022-10-17T11:57:04.904Z,24.81
2022-10-17T11:58:04.905Z,24.81
2022-10-17T11:59:04.892Z,24.81
2022-10-17T12:00:04.890Z,24.81
2022-10-17T12:01:04.923Z,24.88
2022-10-17T12:02:04.944Z,24.88
2022-10-17T12:03:04.946Z,24.88
2022-10-17T12:04:04.945Z,24.81
2022-10-17T12:05:04.898Z,24.88
2022-10-17T12:06:04.888Z,24.88
2022-10-17T12:07:04.933Z,24.88
2022-10-17T12:08:04.899Z,24.88
2022-10-17T12:09:04.887Z,24.88
2022-10-17T12:10:04.969Z,24.81
2022-10-17T12:11:04.899Z,24.81
2022-10-17T12:12:04.977Z,24.81
2022-10-17T12:13:04.920Z,24.81
2022-10-17T12:14:06.109Z,24.81
2022-10-17T12:15:04.941Z,24.88
2022-10-17T12:16:04.917Z,24.81
2022-10-17T12:17:04.947Z,24.88
2022-10-17T12:18:04.914Z,24.88
2022-10-17T12:19:04.910Z,24.88
2022-10-17T12:20:04.975Z,24.88
2022-10-17T12:21:04.932Z,24.94
2022-10-17T12:22:04.953Z,24.94
2022-10-17T12:23:04.909Z,24.94
2022-10-17T12:24:04.921Z,24.94
2022-10-17T12:25:04.915Z,24.94
2022-10-17T12:26:05.346Z,24.94
2022-10-17T12:27:04.963Z,24.94
2022-10-17T12:28:04.917Z,25.00
2022-10-17T12:29:05.006Z,25.00
2022-10-17T12:30:04.923Z,24.94
2022-10-17T12:31:04.918Z,24.94
2022-10-17T12:32:04.929Z,25.00
2022-10-17T12:33:06.947Z,24.94
2022-10-17T12:34:04.938Z,24.94
2022-10-17T12:35:04.920Z,24.94
2022-10-17T12:36:04.922Z,24.94
2022-10-17T12:37:04.950Z,25.00
2022-10-17T12:38:04.938Z,25.00
2022-10-17T12:39:04.956Z,25.00
2022-10-17T12:40:04.918Z,25.00
2022-10-17T12:41:04.931Z,25.00
2022-10-17T12:42:04.975Z,25.00
2022-10-17T12:43:04.978Z,25.00
2022-10-17T12:44:04.926Z,25.00
2022-10-17T12:45:04.932Z,25.00
2022-10-17T12:46:04.958Z,25.00
2022-10-17T12:47:05.122Z,25.00
2022-10-17T12:48:04.957Z,25.06
2022-10-17T12:49:04.935Z,25.06
2022-10-17T12:50:04.974Z,25.06
2022-10-17T12:51:34.596Z,25.06
2022-10-17T12:52:04.986Z,25.06
2022-10-17T12:53:04.923Z,25.06
2022-10-17T12:54:04.980Z,25.06
2022-10-17T12:55:13.371Z,25.06
2022-10-17T12:56:04.933Z,25.12